sensor_id;sensor_type;location;lat;lon;timestamp;P1;durP1;ratioP1;P2;durP2;ratioP2
63693;SDS011;49839;51.798;10.954;2023-08-30T00:02:06;2.67;;;0.80;;
63693;SDS011;49839;51.798;10.954;2023-08-30T00:04:34;3.83;;;1.08;;
63693;SDS011;49839;51.798;10.954;2023-08-30T00:07:05;3.75;;;1.00;;
63693;SDS011;49839;51.798;10.954;2023-08-30T00:09:32;3.72;;;0.98;;
63693;SDS011;49839;51.798;10.954;2023-08-30T00:12:02;2.15;;;0.90;;
63693;SDS011;49839;51.798;10.954;2023-08-30T00:14:31;4.03;;;1.25;;
63693;SDS011;49839;51.798;10.954;2023-08-30T00:16:59;2.22;;;0.90;;
63693;SDS011;49839;51.798;10.954;2023-08-30T00:19:28;4.88;;;0.90;;
63693;SDS011;49839;51.798;10.954;2023-08-30T00:21:56;2.42;;;1.00;;
63693;SDS011;49839;51.798;10.954;2023-08-30T00:24:24;3.33;;;1.00;;
63693;SDS011;49839;51.798;10.954;2023-08-30T00:26:52;6.28;;;1.13;;
63693;SDS011;49839;51.798;10.954;2023-08-30T00:29:19;2.60;;;1.00;;
63693;SDS011;49839;51.798;10.954;2023-08-30T00:31:48;1.75;;;0.80;;
63693;SDS011;49839;51.798;10.954;2023-08-30T00:34:16;2.05;;;0.80;;
63693;SDS011;49839;51.798;10.954;2023-08-30T00:36:44;2.53;;;1.10;;
63693;SDS011;49839;51.798;10.954;2023-08-30T00:39:11;2.75;;;1.02;;
63693;SDS011;49839;51.798;10.954;2023-08-30T00:41:39;3.38;;;0.70;;
63693;SDS011;49839;51.798;10.954;2023-08-30T00:44:07;2.58;;;0.90;;
63693;SDS011;49839;51.798;10.954;2023-08-30T00:46:35;1.35;;;0.90;;
63693;SDS011;49839;51.798;10.954;2023-08-30T00:49:05;2.37;;;0.60;;
63693;SDS011;49839;51.798;10.954;2023-08-30T00:51:33;2.13;;;0.80;;
63693;SDS011;49839;51.798;10.954;2023-08-30T00:54:01;2.45;;;0.85;;
63693;SDS011;49839;51.798;10.954;2023-08-30T00:56:29;3.42;;;0.82;;
63693;SDS011;49839;51.798;10.954;2023-08-30T00:58:58;3.17;;;0.95;;
63693;SDS011;49839;51.798;10.954;2023-08-30T01:01:26;5.00;;;0.93;;
63693;SDS011;49839;51.798;10.954;2023-08-30T01:03:54;3.08;;;0.77;;
63693;SDS011;49839;51.798;10.954;2023-08-30T02:15:10;2.85;;;1.10;;
63693;SDS011;49839;51.798;10.954;2023-08-30T02:17:53;5.78;;;1.50;;
63693;SDS011;49839;51.798;10.954;2023-08-30T02:20:22;4.88;;;1.50;;
63693;SDS011;49839;51.798;10.954;2023-08-30T02:22:50;4.43;;;1.90;;
63693;SDS011;49839;51.798;10.954;2023-08-30T02:25:18;4.60;;;1.90;;
63693;SDS011;49839;51.798;10.954;2023-08-30T02:27:50;5.28;;;2.05;;
63693;SDS011;49839;51.798;10.954;2023-08-30T02:30:19;4.45;;;1.77;;
63693;SDS011;49839;51.798;10.954;2023-08-30T02:32:47;3.42;;;1.45;;
63693;SDS011;49839;51.798;10.954;2023-08-30T02:35:14;3.40;;;1.52;;
63693;SDS011;49839;51.798;10.954;2023-08-30T02:37:42;4.72;;;1.63;;
63693;SDS011;49839;51.798;10.954;2023-08-30T02:40:10;2.45;;;1.13;;
63693;SDS011;49839;51.798;10.954;2023-08-30T02:42:38;4.18;;;1.23;;
63693;SDS011;49839;51.798;10.954;2023-08-30T02:45:06;6.03;;;1.42;;
63693;SDS011;49839;51.798;10.954;2023-08-30T02:47:36;4.45;;;1.25;;
63693;SDS011;49839;51.798;10.954;2023-08-30T02:50:04;3.47;;;1.27;;
63693;SDS011;49839;51.798;10.954;2023-08-30T02:52:32;3.30;;;1.33;;
63693;SDS011;49839;51.798;10.954;2023-08-30T02:55:00;4.72;;;1.75;;
63693;SDS011;49839;51.798;10.954;2023-08-30T02:57:28;4.40;;;1.35;;
63693;SDS011;49839;51.798;10.954;2023-08-30T02:59:55;2.60;;;1.00;;
63693;SDS011;49839;51.798;10.954;2023-08-30T03:02:23;3.58;;;1.60;;
63693;SDS011;49839;51.798;10.954;2023-08-30T03:04:52;7.60;;;1.50;;
63693;SDS011;49839;51.798;10.954;2023-08-30T03:07:20;4.35;;;1.50;;
63693;SDS011;49839;51.798;10.954;2023-08-30T03:09:51;3.90;;;1.30;;
63693;SDS011;49839;51.798;10.954;2023-08-30T03:12:19;4.47;;;1.30;;
63693;SDS011;49839;51.798;10.954;2023-08-30T03:14:47;7.75;;;1.45;;
63693;SDS011;49839;51.798;10.954;2023-08-30T03:17:15;3.17;;;1.40;;
63693;SDS011;49839;51.798;10.954;2023-08-30T03:19:42;4.13;;;1.30;;
63693;SDS011;49839;51.798;10.954;2023-08-30T03:22:12;3.25;;;1.40;;
63693;SDS011;49839;51.798;10.954;2023-08-30T03:24:39;3.17;;;1.40;;
63693;SDS011;49839;51.798;10.954;2023-08-30T05:26:33;10.18;;;2.60;;
63693;SDS011;49839;51.798;10.954;2023-08-30T05:29:01;8.90;;;2.47;;
63693;SDS011;49839;51.798;10.954;2023-08-30T05:31:29;11.30;;;2.20;;
63693;SDS011;49839;51.798;10.954;2023-08-30T05:33:57;8.98;;;2.05;;
63693;SDS011;49839;51.798;10.954;2023-08-30T05:36:25;6.90;;;2.22;;
63693;SDS011;49839;51.798;10.954;2023-08-30T05:38:52;5.95;;;2.10;;
63693;SDS011;49839;51.798;10.954;2023-08-30T05:41:20;13.63;;;5.50;;
63693;SDS011;49839;51.798;10.954;2023-08-30T05:43:49;8.45;;;2.80;;
63693;SDS011;49839;51.798;10.954;2023-08-30T05:46:17;5.45;;;2.35;;
63693;SDS011;49839;51.798;10.954;2023-08-30T05:48:45;5.85;;;2.15;;
63693;SDS011;49839;51.798;10.954;2023-08-30T05:51:24;4.00;;;1.70;;
63693;SDS011;49839;51.798;10.954;2023-08-30T05:53:52;5.03;;;1.75;;
63693;SDS011;49839;51.798;10.954;2023-08-30T05:56:20;3.45;;;1.45;;
63693;SDS011;49839;51.798;10.954;2023-08-30T06:01:28;4.27;;;1.77;;
63693;SDS011;49839;51.798;10.954;2023-08-30T06:06:37;4.05;;;1.83;;
63693;SDS011;49839;51.798;10.954;2023-08-30T06:09:05;3.15;;;1.50;;
63693;SDS011;49839;51.798;10.954;2023-08-30T06:11:32;5.57;;;1.90;;
63693;SDS011;49839;51.798;10.954;2023-08-30T06:14:00;5.85;;;1.83;;
63693;SDS011;49839;51.798;10.954;2023-08-30T06:16:29;4.70;;;1.30;;
63693;SDS011;49839;51.798;10.954;2023-08-30T06:18:58;4.53;;;1.60;;
63693;SDS011;49839;51.798;10.954;2023-08-30T06:21:26;5.50;;;1.65;;
63693;SDS011;49839;51.798;10.954;2023-08-30T06:23:53;3.47;;;1.50;;
63693;SDS011;49839;51.798;10.954;2023-08-30T06:26:21;4.93;;;1.50;;
63693;SDS011;49839;51.798;10.954;2023-08-30T06:28:49;5.07;;;1.60;;
63693;SDS011;49839;51.798;10.954;2023-08-30T06:31:30;4.18;;;1.45;;
63693;SDS011;49839;51.798;10.954;2023-08-30T06:33:58;4.25;;;1.38;;
63693;SDS011;49839;51.798;10.954;2023-08-30T06:36:26;2.67;;;1.17;;
63693;SDS011;49839;51.798;10.954;2023-08-30T06:38:54;2.85;;;1.30;;
63693;SDS011;49839;51.798;10.954;2023-08-30T06:41:22;3.75;;;1.25;;
63693;SDS011;49839;51.798;10.954;2023-08-30T06:43:49;5.30;;;1.10;;
63693;SDS011;49839;51.798;10.954;2023-08-30T06:46:17;3.17;;;1.25;;
63693;SDS011;49839;51.798;10.954;2023-08-30T06:48:46;4.82;;;1.20;;
63693;SDS011;49839;51.798;10.954;2023-08-30T06:51:14;3.75;;;1.10;;
63693;SDS011;49839;51.798;10.954;2023-08-30T06:53:42;7.28;;;1.20;;
63693;SDS011;49839;51.798;10.954;2023-08-30T06:56:10;4.47;;;1.13;;
63693;SDS011;49839;51.798;10.954;2023-08-30T06:58:37;3.47;;;1.20;;
63693;SDS011;49839;51.798;10.954;2023-08-30T07:01:05;3.35;;;1.13;;
63693;SDS011;49839;51.798;10.954;2023-08-30T07:03:33;2.83;;;1.30;;
63693;SDS011;49839;51.798;10.954;2023-08-30T07:06:02;2.95;;;1.40;;
63693;SDS011;49839;51.798;10.954;2023-08-30T07:10:58;2.95;;;1.02;;
63693;SDS011;49839;51.798;10.954;2023-08-30T07:13:26;4.22;;;1.25;;
63693;SDS011;49839;51.798;10.954;2023-08-30T07:15:54;2.13;;;0.90;;
63693;SDS011;49839;51.798;10.954;2023-08-30T07:18:21;3.65;;;1.25;;
63693;SDS011;49839;51.798;10.954;2023-08-30T07:20:49;2.03;;;0.90;;
63693;SDS011;49839;51.798;10.954;2023-08-30T07:23:18;4.68;;;1.20;;
63693;SDS011;49839;51.798;10.954;2023-08-30T07:25:46;7.35;;;1.40;;
63693;SDS011;49839;51.798;10.954;2023-08-30T07:28:14;3.55;;;1.23;;
63693;SDS011;49839;51.798;10.954;2023-08-30T07:30:43;2.25;;;1.00;;
63693;SDS011;49839;51.798;10.954;2023-08-30T07:33:11;3.35;;;1.00;;
63693;SDS011;49839;51.798;10.954;2023-08-30T07:35:39;2.70;;;1.05;;
63693;SDS011;49839;51.798;10.954;2023-08-30T07:38:07;2.97;;;1.30;;
63693;SDS011;49839;51.798;10.954;2023-08-30T07:40:36;2.53;;;1.17;;
63693;SDS011;49839;51.798;10.954;2023-08-30T07:43:04;3.97;;;1.00;;
63693;SDS011;49839;51.798;10.954;2023-08-30T07:45:32;1.85;;;0.95;;
63693;SDS011;49839;51.798;10.954;2023-08-30T07:48:00;6.25;;;1.15;;
63693;SDS011;49839;51.798;10.954;2023-08-30T07:50:27;2.78;;;0.90;;
63693;SDS011;49839;51.798;10.954;2023-08-30T07:52:55;3.15;;;0.63;;
63693;SDS011;49839;51.798;10.954;2023-08-30T07:55:23;2.90;;;1.10;;
63693;SDS011;49839;51.798;10.954;2023-08-30T07:57:52;1.77;;;0.70;;
63693;SDS011;49839;51.798;10.954;2023-08-30T08:00:20;1.98;;;0.80;;
63693;SDS011;49839;51.798;10.954;2023-08-30T08:02:48;2.50;;;0.90;;
63693;SDS011;49839;51.798;10.954;2023-08-30T08:05:15;3.25;;;0.80;;
63693;SDS011;49839;51.798;10.954;2023-08-30T08:07:43;1.35;;;0.60;;
63693;SDS011;49839;51.798;10.954;2023-08-30T08:10:11;4.07;;;0.60;;
63693;SDS011;49839;51.798;10.954;2023-08-30T08:12:39;2.03;;;0.80;;
63693;SDS011;49839;51.798;10.954;2023-08-30T08:15:08;1.60;;;0.73;;
63693;SDS011;49839;51.798;10.954;2023-08-30T08:17:37;1.60;;;0.80;;
63693;SDS011;49839;51.798;10.954;2023-08-30T08:20:05;1.13;;;0.70;;
63693;SDS011;49839;51.798;10.954;2023-08-30T08:22:33;3.42;;;0.90;;
63693;SDS011;49839;51.798;10.954;2023-08-30T08:25:01;4.07;;;0.80;;
63693;SDS011;49839;51.798;10.954;2023-08-30T08:27:29;2.60;;;1.05;;
63693;SDS011;49839;51.798;10.954;2023-08-30T08:29:57;1.98;;;0.60;;
63693;SDS011;49839;51.798;10.954;2023-08-30T08:32:26;1.80;;;0.70;;
63693;SDS011;49839;51.798;10.954;2023-08-30T08:34:54;3.63;;;0.70;;
63693;SDS011;49839;51.798;10.954;2023-08-30T08:37:22;9.15;;;2.47;;
63693;SDS011;49839;51.798;10.954;2023-08-30T08:39:49;2.88;;;0.90;;
63693;SDS011;49839;51.798;10.954;2023-08-30T08:42:18;9.43;;;2.33;;
63693;SDS011;49839;51.798;10.954;2023-08-30T08:44:46;2.00;;;0.70;;
63693;SDS011;49839;51.798;10.954;2023-08-30T08:47:16;2.25;;;0.47;;
63693;SDS011;49839;51.798;10.954;2023-08-30T08:49:47;2.10;;;0.55;;
63693;SDS011;49839;51.798;10.954;2023-08-30T08:52:17;1.15;;;0.50;;
63693;SDS011;49839;51.798;10.954;2023-08-30T08:54:56;1.40;;;0.50;;
63693;SDS011;49839;51.798;10.954;2023-08-30T08:57:26;2.90;;;0.60;;
63693;SDS011;49839;51.798;10.954;2023-08-30T08:59:55;2.90;;;0.60;;
63693;SDS011;49839;51.798;10.954;2023-08-30T09:07:48;3.78;;;0.70;;
63693;SDS011;49839;51.798;10.954;2023-08-30T09:10:20;1.60;;;0.60;;
63693;SDS011;49839;51.798;10.954;2023-08-30T09:12:48;2.22;;;0.57;;
63693;SDS011;49839;51.798;10.954;2023-08-30T09:20:38;4.03;;;0.80;;
63693;SDS011;49839;51.798;10.954;2023-08-30T09:23:15;1.23;;;0.50;;
63693;SDS011;49839;51.798;10.954;2023-08-30T09:25:43;3.05;;;0.40;;
63693;SDS011;49839;51.798;10.954;2023-08-30T09:28:12;1.92;;;0.60;;
63693;SDS011;49839;51.798;10.954;2023-08-30T09:30:40;1.63;;;0.55;;
63693;SDS011;49839;51.798;10.954;2023-08-30T09:33:08;1.60;;;0.70;;
63693;SDS011;49839;51.798;10.954;2023-08-30T09:35:43;3.80;;;0.80;;
63693;SDS011;49839;51.798;10.954;2023-08-30T09:38:19;2.78;;;0.68;;
63693;SDS011;49839;51.798;10.954;2023-08-30T09:40:47;4.43;;;0.85;;
63693;SDS011;49839;51.798;10.954;2023-08-30T09:43:18;7.60;;;1.20;;
63693;SDS011;49839;51.798;10.954;2023-08-30T09:45:48;2.45;;;0.85;;
63693;SDS011;49839;51.798;10.954;2023-08-30T09:48:16;3.08;;;0.90;;
63693;SDS011;49839;51.798;10.954;2023-08-30T09:50:49;1.85;;;0.70;;
63693;SDS011;49839;51.798;10.954;2023-08-30T09:53:23;3.72;;;0.80;;
63693;SDS011;49839;51.798;10.954;2023-08-30T09:55:54;3.85;;;1.05;;
63693;SDS011;49839;51.798;10.954;2023-08-30T09:58:22;2.47;;;0.88;;
63693;SDS011;49839;51.798;10.954;2023-08-30T10:00:53;0.98;;;0.60;;
63693;SDS011;49839;51.798;10.954;2023-08-30T10:03:22;2.05;;;0.80;;
63693;SDS011;49839;51.798;10.954;2023-08-30T10:05:57;3.47;;;0.90;;
63693;SDS011;49839;51.798;10.954;2023-08-30T10:08:28;2.38;;;0.70;;
63693;SDS011;49839;51.798;10.954;2023-08-30T10:10:57;2.47;;;0.80;;
63693;SDS011;49839;51.798;10.954;2023-08-30T10:13:26;7.40;;;1.17;;
63693;SDS011;49839;51.798;10.954;2023-08-30T10:15:57;3.40;;;1.10;;
63693;SDS011;49839;51.798;10.954;2023-08-30T10:18:29;2.70;;;1.00;;
63693;SDS011;49839;51.798;10.954;2023-08-30T10:21:01;3.17;;;1.00;;
63693;SDS011;49839;51.798;10.954;2023-08-30T10:23:34;3.10;;;1.00;;
63693;SDS011;49839;51.798;10.954;2023-08-30T10:26:03;4.60;;;1.10;;
63693;SDS011;49839;51.798;10.954;2023-08-30T10:28:34;3.70;;;0.82;;
63693;SDS011;49839;51.798;10.954;2023-08-30T10:31:03;4.78;;;1.08;;
63693;SDS011;49839;51.798;10.954;2023-08-30T10:33:31;4.10;;;1.00;;
63693;SDS011;49839;51.798;10.954;2023-08-30T10:36:05;3.45;;;1.08;;
63693;SDS011;49839;51.798;10.954;2023-08-30T10:38:34;1.25;;;0.73;;
63693;SDS011;49839;51.798;10.954;2023-08-30T10:41:08;5.22;;;1.10;;
63693;SDS011;49839;51.798;10.954;2023-08-30T10:43:36;3.88;;;1.08;;
63693;SDS011;49839;51.798;10.954;2023-08-30T10:46:05;3.13;;;1.42;;
63693;SDS011;49839;51.798;10.954;2023-08-30T10:48:35;2.40;;;1.20;;
63693;SDS011;49839;51.798;10.954;2023-08-30T10:53:31;3.72;;;0.90;;
63693;SDS011;49839;51.798;10.954;2023-08-30T10:56:10;4.07;;;1.20;;
63693;SDS011;49839;51.798;10.954;2023-08-30T10:58:43;6.38;;;1.05;;
63693;SDS011;49839;51.798;10.954;2023-08-30T11:01:11;5.13;;;1.00;;
63693;SDS011;49839;51.798;10.954;2023-08-30T11:03:40;2.33;;;0.90;;
63693;SDS011;49839;51.798;10.954;2023-08-30T11:08:41;4.78;;;0.95;;
63693;SDS011;49839;51.798;10.954;2023-08-30T11:11:10;5.35;;;1.50;;
63693;SDS011;49839;51.798;10.954;2023-08-30T11:13:40;4.25;;;1.02;;
63693;SDS011;49839;51.798;10.954;2023-08-30T11:16:08;3.67;;;1.17;;
63693;SDS011;49839;51.798;10.954;2023-08-30T11:18:38;4.95;;;1.50;;
63693;SDS011;49839;51.798;10.954;2023-08-30T11:21:07;3.17;;;1.60;;
63693;SDS011;49839;51.798;10.954;2023-08-30T11:23:37;2.72;;;1.40;;
63693;SDS011;49839;51.798;10.954;2023-08-30T11:26:06;4.82;;;1.98;;
63693;SDS011;49839;51.798;10.954;2023-08-30T11:28:36;4.00;;;1.60;;
63693;SDS011;49839;51.798;10.954;2023-08-30T11:31:08;3.13;;;1.48;;
63693;SDS011;49839;51.798;10.954;2023-08-30T11:33:35;4.88;;;1.40;;
63693;SDS011;49839;51.798;10.954;2023-08-30T11:36:03;3.58;;;1.48;;
63693;SDS011;49839;51.798;10.954;2023-08-30T11:38:31;4.20;;;1.30;;
63693;SDS011;49839;51.798;10.954;2023-08-30T11:40:59;4.03;;;1.85;;
63693;SDS011;49839;51.798;10.954;2023-08-30T11:43:27;4.10;;;2.10;;
63693;SDS011;49839;51.798;10.954;2023-08-30T11:45:57;4.95;;;1.80;;
63693;SDS011;49839;51.798;10.954;2023-08-30T11:48:25;5.45;;;2.00;;
63693;SDS011;49839;51.798;10.954;2023-08-30T11:50:54;4.25;;;2.17;;
63693;SDS011;49839;51.798;10.954;2023-08-30T11:53:22;4.75;;;2.40;;
63693;SDS011;49839;51.798;10.954;2023-08-30T11:55:50;3.37;;;2.07;;
63693;SDS011;49839;51.798;10.954;2023-08-30T11:58:18;4.35;;;2.22;;
63693;SDS011;49839;51.798;10.954;2023-08-30T12:00:46;4.00;;;2.10;;
63693;SDS011;49839;51.798;10.954;2023-08-30T12:03:19;5.28;;;2.63;;
63693;SDS011;49839;51.798;10.954;2023-08-30T12:05:47;4.03;;;2.53;;
63693;SDS011;49839;51.798;10.954;2023-08-30T12:08:19;6.05;;;2.45;;
63693;SDS011;49839;51.798;10.954;2023-08-30T12:10:47;5.05;;;2.60;;
63693;SDS011;49839;51.798;10.954;2023-08-30T12:13:21;3.70;;;2.13;;
63693;SDS011;49839;51.798;10.954;2023-08-30T12:15:50;6.38;;;2.35;;
63693;SDS011;49839;51.798;10.954;2023-08-30T12:18:21;6.63;;;2.50;;
63693;SDS011;49839;51.798;10.954;2023-08-30T12:20:51;3.85;;;2.00;;
63693;SDS011;49839;51.798;10.954;2023-08-30T12:23:19;3.70;;;2.35;;
63693;SDS011;49839;51.798;10.954;2023-08-30T12:25:57;5.30;;;2.60;;
63693;SDS011;49839;51.798;10.954;2023-08-30T12:28:25;6.00;;;2.25;;
63693;SDS011;49839;51.798;10.954;2023-08-30T12:30:53;4.40;;;2.17;;
63693;SDS011;49839;51.798;10.954;2023-08-30T12:33:23;5.10;;;2.70;;
63693;SDS011;49839;51.798;10.954;2023-08-30T12:35:52;7.95;;;2.83;;
63693;SDS011;49839;51.798;10.954;2023-08-30T12:38:20;4.55;;;2.42;;
63693;SDS011;49839;51.798;10.954;2023-08-30T12:40:48;4.57;;;2.80;;
63693;SDS011;49839;51.798;10.954;2023-08-30T12:43:17;6.55;;;2.70;;
63693;SDS011;49839;51.798;10.954;2023-08-30T12:45:47;4.80;;;2.20;;
63693;SDS011;49839;51.798;10.954;2023-08-30T12:48:16;7.28;;;2.03;;
63693;SDS011;49839;51.798;10.954;2023-08-30T12:50:47;4.95;;;2.83;;
63693;SDS011;49839;51.798;10.954;2023-08-30T12:53:15;5.22;;;2.10;;
63693;SDS011;49839;51.798;10.954;2023-08-30T12:55:43;3.30;;;1.88;;
63693;SDS011;49839;51.798;10.954;2023-08-30T12:58:11;4.03;;;1.90;;
63693;SDS011;49839;51.798;10.954;2023-08-30T13:00:40;6.93;;;2.70;;
63693;SDS011;49839;51.798;10.954;2023-08-30T13:03:08;6.93;;;2.70;;
63693;SDS011;49839;51.798;10.954;2023-08-30T13:05:36;5.65;;;2.20;;
63693;SDS011;49839;51.798;10.954;2023-08-30T13:08:05;5.13;;;2.40;;
63693;SDS011;49839;51.798;10.954;2023-08-30T13:13:01;7.75;;;2.80;;
63693;SDS011;49839;51.798;10.954;2023-08-30T13:15:29;8.48;;;2.20;;
63693;SDS011;49839;51.798;10.954;2023-08-30T13:17:57;5.70;;;2.20;;
63693;SDS011;49839;51.798;10.954;2023-08-30T13:20:25;5.18;;;2.30;;
63693;SDS011;49839;51.798;10.954;2023-08-30T13:22:52;5.47;;;2.85;;
63693;SDS011;49839;51.798;10.954;2023-08-30T13:25:21;5.38;;;3.20;;
63693;SDS011;49839;51.798;10.954;2023-08-30T13:27:49;4.22;;;2.63;;
63693;SDS011;49839;51.798;10.954;2023-08-30T13:30:17;4.25;;;2.45;;
63693;SDS011;49839;51.798;10.954;2023-08-30T13:32:44;5.70;;;2.78;;
63693;SDS011;49839;51.798;10.954;2023-08-30T13:35:12;4.43;;;2.72;;
63693;SDS011;49839;51.798;10.954;2023-08-30T13:37:40;5.32;;;2.30;;
63693;SDS011;49839;51.798;10.954;2023-08-30T13:40:08;6.65;;;2.70;;
63693;SDS011;49839;51.798;10.954;2023-08-30T13:42:39;5.47;;;2.92;;
63693;SDS011;49839;51.798;10.954;2023-08-30T13:45:07;4.88;;;2.72;;
63693;SDS011;49839;51.798;10.954;2023-08-30T13:47:36;5.45;;;2.75;;
63693;SDS011;49839;51.798;10.954;2023-08-30T13:50:04;4.85;;;2.70;;
63693;SDS011;49839;51.798;10.954;2023-08-30T13:52:33;3.78;;;2.25;;
63693;SDS011;49839;51.798;10.954;2023-08-30T13:55:01;4.72;;;2.50;;
63693;SDS011;49839;51.798;10.954;2023-08-30T13:57:29;4.45;;;2.40;;
63693;SDS011;49839;51.798;10.954;2023-08-30T13:59:58;4.38;;;2.50;;
63693;SDS011;49839;51.798;10.954;2023-08-30T14:02:28;4.82;;;2.50;;
63693;SDS011;49839;51.798;10.954;2023-08-30T14:04:56;5.15;;;2.70;;
63693;SDS011;49839;51.798;10.954;2023-08-30T14:07:24;4.43;;;2.40;;
63693;SDS011;49839;51.798;10.954;2023-08-30T14:09:51;3.35;;;1.85;;
63693;SDS011;49839;51.798;10.954;2023-08-30T14:12:19;6.45;;;2.83;;
63693;SDS011;49839;51.798;10.954;2023-08-30T14:14:50;3.45;;;2.22;;
63693;SDS011;49839;51.798;10.954;2023-08-30T14:17:19;3.50;;;2.38;;
63693;SDS011;49839;51.798;10.954;2023-08-30T14:19:50;5.28;;;2.60;;
63693;SDS011;49839;51.798;10.954;2023-08-30T14:22:18;4.60;;;1.92;;
63693;SDS011;49839;51.798;10.954;2023-08-30T14:24:46;5.22;;;2.42;;
63693;SDS011;49839;51.798;10.954;2023-08-30T14:27:28;6.05;;;3.20;;
63693;SDS011;49839;51.798;10.954;2023-08-30T14:29:58;5.32;;;2.42;;
63693;SDS011;49839;51.798;10.954;2023-08-30T14:32:28;5.00;;;3.13;;
63693;SDS011;49839;51.798;10.954;2023-08-30T14:34:55;6.60;;;3.53;;
63693;SDS011;49839;51.798;10.954;2023-08-30T14:37:24;5.00;;;3.03;;
63693;SDS011;49839;51.798;10.954;2023-08-30T14:42:30;5.72;;;2.90;;
63693;SDS011;49839;51.798;10.954;2023-08-30T14:44:58;4.60;;;2.90;;
63693;SDS011;49839;51.798;10.954;2023-08-30T14:47:28;5.80;;;2.63;;
63693;SDS011;49839;51.798;10.954;2023-08-30T14:49:59;4.88;;;2.92;;
63693;SDS011;49839;51.798;10.954;2023-08-30T14:52:29;4.72;;;3.05;;
63693;SDS011;49839;51.798;10.954;2023-08-30T14:54:57;5.88;;;3.03;;
63693;SDS011;49839;51.798;10.954;2023-08-30T14:57:28;5.32;;;2.85;;
63693;SDS011;49839;51.798;10.954;2023-08-30T14:59:58;4.78;;;2.83;;
63693;SDS011;49839;51.798;10.954;2023-08-30T15:02:27;4.65;;;2.65;;
63693;SDS011;49839;51.798;10.954;2023-08-30T15:04:57;7.03;;;2.80;;
63693;SDS011;49839;51.798;10.954;2023-08-30T15:07:28;7.10;;;2.70;;
63693;SDS011;49839;51.798;10.954;2023-08-30T15:10:01;4.20;;;2.80;;
63693;SDS011;49839;51.798;10.954;2023-08-30T15:12:29;4.25;;;2.25;;
63693;SDS011;49839;51.798;10.954;2023-08-30T15:14:56;3.58;;;2.47;;
63693;SDS011;49839;51.798;10.954;2023-08-30T15:17:24;4.32;;;2.63;;
63693;SDS011;49839;51.798;10.954;2023-08-30T15:19:56;3.53;;;2.30;;
63693;SDS011;49839;51.798;10.954;2023-08-30T15:22:23;4.75;;;2.65;;
63693;SDS011;49839;51.798;10.954;2023-08-30T15:24:58;4.32;;;2.53;;
63693;SDS011;49839;51.798;10.954;2023-08-30T15:27:28;6.28;;;2.63;;
63693;SDS011;49839;51.798;10.954;2023-08-30T15:29:55;5.88;;;2.35;;
63693;SDS011;49839;51.798;10.954;2023-08-30T15:32:24;5.82;;;2.40;;
63693;SDS011;49839;51.798;10.954;2023-08-30T15:34:53;4.65;;;2.42;;
63693;SDS011;49839;51.798;10.954;2023-08-30T15:37:23;3.97;;;2.40;;
63693;SDS011;49839;51.798;10.954;2023-08-30T15:39:58;6.32;;;2.30;;
63693;SDS011;49839;51.798;10.954;2023-08-30T15:42:30;4.15;;;2.33;;
63693;SDS011;49839;51.798;10.954;2023-08-30T15:44:58;4.22;;;2.20;;
63693;SDS011;49839;51.798;10.954;2023-08-30T15:47:26;4.05;;;2.20;;
63693;SDS011;49839;51.798;10.954;2023-08-30T15:49:55;3.95;;;2.30;;
63693;SDS011;49839;51.798;10.954;2023-08-30T15:52:23;5.03;;;2.53;;
63693;SDS011;49839;51.798;10.954;2023-08-30T15:54:50;5.00;;;2.17;;
63693;SDS011;49839;51.798;10.954;2023-08-30T15:57:21;5.45;;;2.40;;
63693;SDS011;49839;51.798;10.954;2023-08-30T15:59:48;4.53;;;2.00;;
63693;SDS011;49839;51.798;10.954;2023-08-30T16:02:16;3.15;;;1.85;;
63693;SDS011;49839;51.798;10.954;2023-08-30T16:04:44;4.10;;;2.20;;
63693;SDS011;49839;51.798;10.954;2023-08-30T16:07:13;4.03;;;2.00;;
63693;SDS011;49839;51.798;10.954;2023-08-30T16:09:42;5.82;;;2.10;;
63693;SDS011;49839;51.798;10.954;2023-08-30T16:12:12;3.55;;;1.67;;
63693;SDS011;49839;51.798;10.954;2023-08-30T16:14:40;3.05;;;1.70;;
63693;SDS011;49839;51.798;10.954;2023-08-30T16:17:07;5.82;;;2.20;;
63693;SDS011;49839;51.798;10.954;2023-08-30T16:19:35;3.47;;;2.00;;
63693;SDS011;49839;51.798;10.954;2023-08-30T16:22:09;3.03;;;1.90;;
63693;SDS011;49839;51.798;10.954;2023-08-30T16:24:40;4.47;;;2.10;;
63693;SDS011;49839;51.798;10.954;2023-08-30T16:27:07;4.13;;;2.13;;
63693;SDS011;49839;51.798;10.954;2023-08-30T16:29:35;4.60;;;2.33;;
63693;SDS011;49839;51.798;10.954;2023-08-30T16:32:03;4.53;;;2.30;;
63693;SDS011;49839;51.798;10.954;2023-08-30T16:34:34;4.43;;;2.67;;
63693;SDS011;49839;51.798;10.954;2023-08-30T16:37:03;6.03;;;2.72;;
63693;SDS011;49839;51.798;10.954;2023-08-30T16:39:33;3.95;;;2.47;;
63693;SDS011;49839;51.798;10.954;2023-08-30T16:42:02;6.50;;;3.63;;
63693;SDS011;49839;51.798;10.954;2023-08-30T16:44:32;6.07;;;2.75;;
63693;SDS011;49839;51.798;10.954;2023-08-30T16:49:31;6.10;;;2.80;;
63693;SDS011;49839;51.798;10.954;2023-08-30T16:51:58;4.95;;;2.50;;
63693;SDS011;49839;51.798;10.954;2023-08-30T16:54:27;5.07;;;2.50;;
63693;SDS011;49839;51.798;10.954;2023-08-30T16:56:55;5.70;;;2.22;;
63693;SDS011;49839;51.798;10.954;2023-08-30T16:59:24;6.68;;;2.45;;
63693;SDS011;49839;51.798;10.954;2023-08-30T17:01:55;6.25;;;2.78;;
63693;SDS011;49839;51.798;10.954;2023-08-30T17:04:23;4.35;;;2.30;;
63693;SDS011;49839;51.798;10.954;2023-08-30T17:06:51;5.13;;;2.38;;
63693;SDS011;49839;51.798;10.954;2023-08-30T17:09:25;4.57;;;2.40;;
63693;SDS011;49839;51.798;10.954;2023-08-30T17:11:54;4.23;;;2.20;;
63693;SDS011;49839;51.798;10.954;2023-08-30T17:14:26;3.85;;;2.10;;
63693;SDS011;49839;51.798;10.954;2023-08-30T17:16:54;4.82;;;2.40;;
63693;SDS011;49839;51.798;10.954;2023-08-30T17:19:22;4.57;;;2.25;;
63693;SDS011;49839;51.798;10.954;2023-08-30T17:21:50;5.28;;;2.17;;
63693;SDS011;49839;51.798;10.954;2023-08-30T17:24:18;3.70;;;2.20;;
63693;SDS011;49839;51.798;10.954;2023-08-30T17:26:46;4.30;;;2.30;;
63693;SDS011;49839;51.798;10.954;2023-08-30T17:29:14;3.63;;;1.88;;
63693;SDS011;49839;51.798;10.954;2023-08-30T17:31:45;4.45;;;2.60;;
63693;SDS011;49839;51.798;10.954;2023-08-30T17:34:13;6.03;;;2.78;;
63693;SDS011;49839;51.798;10.954;2023-08-30T17:36:40;5.18;;;2.35;;
63693;SDS011;49839;51.798;10.954;2023-08-30T17:39:13;6.32;;;2.60;;
63693;SDS011;49839;51.798;10.954;2023-08-30T17:41:41;5.70;;;2.65;;
63693;SDS011;49839;51.798;10.954;2023-08-30T17:44:08;5.55;;;2.50;;
63693;SDS011;49839;51.798;10.954;2023-08-30T17:46:36;5.10;;;2.45;;
63693;SDS011;49839;51.798;10.954;2023-08-30T17:49:06;5.03;;;2.25;;
63693;SDS011;49839;51.798;10.954;2023-08-30T17:51:33;7.45;;;2.60;;
63693;SDS011;49839;51.798;10.954;2023-08-30T17:54:01;4.82;;;2.30;;
63693;SDS011;49839;51.798;10.954;2023-08-30T17:56:29;4.00;;;2.25;;
63693;SDS011;49839;51.798;10.954;2023-08-30T17:58:57;5.68;;;2.65;;
63693;SDS011;49839;51.798;10.954;2023-08-30T18:01:27;4.07;;;2.40;;
63693;SDS011;49839;51.798;10.954;2023-08-30T18:03:56;4.25;;;2.20;;
63693;SDS011;49839;51.798;10.954;2023-08-30T18:06:25;5.28;;;2.08;;
63693;SDS011;49839;51.798;10.954;2023-08-30T18:08:55;4.53;;;2.47;;
63693;SDS011;49839;51.798;10.954;2023-08-30T18:11:23;4.57;;;2.17;;
63693;SDS011;49839;51.798;10.954;2023-08-30T18:13:51;5.07;;;2.50;;
63693;SDS011;49839;51.798;10.954;2023-08-30T18:16:21;5.45;;;2.42;;
63693;SDS011;49839;51.798;10.954;2023-08-30T18:18:51;5.28;;;2.38;;
63693;SDS011;49839;51.798;10.954;2023-08-30T18:24:12;5.60;;;2.20;;
63693;SDS011;49839;51.798;10.954;2023-08-30T18:26:43;5.35;;;2.50;;